createdAt,value
2018-08-12T00:00:21.777Z,3.93
2018-08-12T00:00:52.901Z,4.07
2018-08-12T00:01:24.072Z,3.70
2018-08-12T00:01:55.251Z,3.70
2018-08-12T00:02:26.410Z,3.80
2018-08-12T00:02:57.572Z,3.90
2018-08-12T00:03:28.696Z,4.07
2018-08-12T00:03:59.869Z,3.90
2018-08-12T00:04:31.080Z,4.10
2018-08-12T00:05:02.284Z,4.10
2018-08-12T00:05:33.502Z,3.90
2018-08-12T00:06:04.668Z,4.03
2018-08-12T00:06:35.888Z,3.73
2018-08-12T00:07:07.007Z,4.40
2018-08-12T00:07:38.129Z,4.60
2018-08-12T00:08:09.238Z,4.00
2018-08-12T00:08:40.459Z,3.70
2018-08-12T00:09:11.575Z,4.37
2018-08-12T00:09:42.679Z,4.13
2018-08-12T00:10:14.663Z,4.30
2018-08-12T00:10:45.793Z,4.37
2018-08-12T00:11:16.911Z,4.43
2018-08-12T00:11:48.126Z,4.20
2018-08-12T00:12:19.359Z,4.40
2018-08-12T00:12:50.536Z,4.03
2018-08-12T00:13:21.762Z,4.70
2018-08-12T00:13:52.879Z,4.40
2018-08-12T00:14:24.040Z,4.77
2018-08-12T00:14:55.212Z,4.50
2018-08-12T00:15:26.424Z,4.20
2018-08-12T00:15:57.539Z,4.50
2018-08-12T00:16:28.649Z,4.40
2018-08-12T00:16:59.759Z,4.30
2018-08-12T00:17:30.924Z,4.50
2018-08-12T00:18:02.148Z,4.57
2018-08-12T00:18:33.277Z,4.20
2018-08-12T00:19:04.389Z,4.63
2018-08-12T00:19:35.554Z,4.30
2018-08-12T00:20:06.759Z,4.57
2018-08-12T00:20:37.906Z,4.37
2018-08-12T00:21:09.126Z,4.83
2018-08-12T00:21:40.303Z,4.70
2018-08-12T00:22:11.414Z,4.60
2018-08-12T00:22:42.625Z,4.47
2018-08-12T00:23:13.738Z,4.30
2018-08-12T00:23:44.902Z,4.23
2018-08-12T00:24:16.012Z,4.17
2018-08-12T00:24:47.117Z,4.13
2018-08-12T00:25:18.232Z,4.30
2018-08-12T00:25:49.372Z,5.00
2018-08-12T00:26:20.547Z,4.90
2018-08-12T00:26:51.708Z,4.87
2018-08-12T00:27:22.872Z,5.13
2018-08-12T00:27:53.984Z,5.07
2018-08-12T00:28:25.148Z,4.30
2018-08-12T00:28:56.269Z,5.40
2018-08-12T00:29:27.375Z,5.30
2018-08-12T00:29:58.585Z,4.80
2018-08-12T00:30:29.751Z,5.67
2018-08-12T00:31:00.914Z,6.00
2018-08-12T00:31:32.141Z,5.87
2018-08-12T00:32:03.263Z,5.50
2018-08-12T00:32:34.435Z,5.23
2018-08-12T00:33:05.609Z,5.57
2018-08-12T00:33:36.783Z,5.30
2018-08-12T00:34:07.904Z,6.03
2018-08-12T00:34:39.066Z,5.97
2018-08-12T00:35:10.231Z,6.07
2018-08-12T00:35:41.455Z,5.95
2018-08-12T00:36:12.568Z,6.13
2018-08-12T00:36:43.681Z,5.80
2018-08-12T00:37:14.797Z,5.93
2018-08-12T00:37:45.903Z,6.13
2018-08-12T00:38:17.079Z,6.23
2018-08-12T00:38:48.256Z,6.07
2018-08-12T00:39:19.429Z,5.93
2018-08-12T00:39:50.551Z,6.58
2018-08-12T00:40:21.651Z,5.83
2018-08-12T00:40:52.807Z,6.10
2018-08-12T00:41:23.989Z,6.10
2018-08-12T00:41:55.208Z,6.12
2018-08-12T00:42:26.397Z,6.25
2018-08-12T00:42:57.522Z,6.15
2018-08-12T00:43:28.756Z,5.87
2018-08-12T00:43:59.878Z,6.20
2018-08-12T00:44:31.037Z,6.30
2018-08-12T00:45:02.224Z,6.03
2018-08-12T00:45:33.444Z,5.85
2018-08-12T00:46:04.616Z,5.60
2018-08-12T00:46:35.788Z,6.33
2018-08-12T00:47:06.912Z,6.62
2018-08-12T00:47:38.028Z,6.35
2018-08-12T00:48:09.204Z,5.80
2018-08-12T00:48:40.382Z,6.65
2018-08-12T00:49:11.555Z,6.25
2018-08-12T00:49:42.744Z,6.65
2018-08-12T00:50:13.860Z,6.08
2018-08-12T00:50:44.971Z,6.30
2018-08-12T00:51:16.176Z,6.30
2018-08-12T00:51:47.287Z,6.70
2018-08-12T00:52:18.504Z,6.28
2018-08-12T00:52:49.777Z,6.22
2018-08-12T00:53:20.948Z,6.05
2018-08-12T00:53:52.069Z,6.37
2018-08-12T00:54:23.293Z,6.15
2018-08-12T00:54:54.471Z,6.33
2018-08-12T00:55:25.616Z,5.80
2018-08-12T00:55:56.790Z,6.40
2018-08-12T00:56:27.972Z,6.22
2018-08-12T00:56:59.125Z,6.30
2018-08-12T00:57:30.292Z,6.20
2018-08-12T00:58:01.431Z,6.10
2018-08-12T00:58:32.579Z,5.55
2018-08-12T00:59:03.753Z,6.72
2018-08-12T00:59:34.916Z,6.05
2018-08-12T01:00:06.085Z,5.72
2018-08-12T01:00:37.195Z,6.10
2018-08-12T01:01:08.306Z,6.42
2018-08-12T01:01:39.424Z,6.30
2018-08-12T01:02:10.549Z,6.58
2018-08-12T01:02:41.712Z,6.35
2018-08-12T01:03:12.924Z,6.67
2018-08-12T01:03:44.038Z,6.20
2018-08-12T01:04:15.164Z,6.15
2018-08-12T01:04:46.275Z,6.37
2018-08-12T01:05:17.396Z,6.03
2018-08-12T01:05:48.649Z,6.37
2018-08-12T01:06:19.839Z,6.50
2018-08-12T01:06:51.074Z,5.90
2018-08-12T01:07:22.282Z,5.92
2018-08-12T01:07:53.451Z,5.83
2018-08-12T01:08:24.684Z,5.90
2018-08-12T01:08:55.852Z,5.95
2018-08-12T01:09:27.064Z,5.92
2018-08-12T01:09:58.290Z,6.10
2018-08-12T01:10:29.452Z,6.28
2018-08-12T01:11:00.620Z,6.22
2018-08-12T01:11:31.805Z,6.55
2018-08-12T01:12:02.923Z,5.90
2018-08-12T01:12:34.104Z,6.20
2018-08-12T01:13:05.212Z,5.60
2018-08-12T01:13:36.434Z,5.58
2018-08-12T01:14:07.611Z,6.33
2018-08-12T01:14:38.730Z,6.03
2018-08-12T01:15:09.907Z,6.45
2018-08-12T01:15:41.077Z,6.15
2018-08-12T01:16:12.207Z,5.85
2018-08-12T01:16:43.370Z,5.97
2018-08-12T01:17:14.491Z,6.30
2018-08-12T01:17:45.660Z,6.42
2018-08-12T01:18:16.795Z,6.42
2018-08-12T01:18:47.907Z,6.28
2018-08-12T01:19:19.055Z,6.45
2018-08-12T01:19:50.172Z,6.47
2018-08-12T01:20:21.298Z,6.50
2018-08-12T01:20:52.415Z,6.72
2018-08-12T01:21:23.589Z,6.60
2018-08-12T01:21:54.703Z,6.15
2018-08-12T01:22:25.862Z,6.70
2018-08-12T01:22:57.049Z,6.55
2018-08-12T01:23:28.162Z,6.65
2018-08-12T01:23:59.284Z,6.72
2018-08-12T01:24:30.431Z,6.35
2018-08-12T01:25:01.544Z,6.22
2018-08-12T01:25:32.719Z,5.78
2018-08-12T01:26:03.881Z,6.22
2018-08-12T01:26:35.047Z,6.08
2018-08-12T01:27:06.163Z,5.72
2018-08-12T01:27:37.275Z,5.70
2018-08-12T01:28:08.394Z,5.92
2018-08-12T01:28:39.502Z,6.03
2018-08-12T01:29:10.616Z,5.45
2018-08-12T01:29:41.771Z,5.60
2018-08-12T01:30:12.951Z,6.33
2018-08-12T01:30:44.074Z,5.97
2018-08-12T01:31:15.186Z,5.85
2018-08-12T01:31:46.307Z,5.67
2018-08-12T01:32:17.476Z,5.90
2018-08-12T01:32:48.604Z,5.70
2018-08-12T01:33:19.721Z,6.37
2018-08-12T01:33:50.854Z,6.17
2018-08-12T01:34:22.004Z,6.28
2018-08-12T01:34:53.168Z,5.90
2018-08-12T01:35:24.342Z,6.12
2018-08-12T01:35:55.575Z,6.00
2018-08-12T01:36:26.738Z,5.78
2018-08-12T01:36:57.900Z,5.87
2018-08-12T01:37:29.076Z,6.58
2018-08-12T01:38:00.258Z,5.58
2018-08-12T01:38:31.513Z,6.20
2018-08-12T01:39:02.699Z,5.62
2018-08-12T01:39:33.925Z,5.97
2018-08-12T01:40:05.101Z,5.60
2018-08-12T01:40:36.273Z,5.53
2018-08-12T01:41:07.441Z,5.50
2018-08-12T01:41:38.625Z,5.83
2018-08-12T01:42:09.790Z,6.30
2018-08-12T01:42:40.915Z,5.83
2018-08-12T01:43:12.140Z,5.92
2018-08-12T01:43:43.299Z,6.15
2018-08-12T01:44:14.471Z,6.28
2018-08-12T01:44:45.647Z,5.92
2018-08-12T01:45:16.810Z,5.42
2018-08-12T01:45:47.934Z,5.78
2018-08-12T01:46:19.190Z,6.15
2018-08-12T01:46:50.352Z,6.17
2018-08-12T01:47:21.531Z,5.72
2018-08-12T01:47:52.692Z,6.37
2018-08-12T01:48:23.872Z,6.45
2018-08-12T01:48:54.998Z,5.92
2018-08-12T01:49:26.210Z,5.72
2018-08-12T01:49:57.397Z,6.10
2018-08-12T01:50:28.507Z,6.17
2018-08-12T01:50:59.615Z,5.78
2018-08-12T01:51:30.884Z,6.10
2018-08-12T01:52:02.061Z,5.90
2018-08-12T01:52:33.175Z,6.15
2018-08-12T01:53:04.285Z,6.33
2018-08-12T01:53:35.383Z,6.08
2018-08-12T01:54:06.545Z,6.25
2018-08-12T01:54:37.736Z,6.12
2018-08-12T01:55:08.892Z,6.33
2018-08-12T01:55:40.047Z,5.55
2018-08-12T01:56:11.160Z,6.20
2018-08-12T01:56:42.377Z,6.30
2018-08-12T01:57:13.552Z,6.12
2018-08-12T01:57:44.683Z,6.03
2018-08-12T01:58:15.793Z,5.95
2018-08-12T01:58:46.964Z,6.45
2018-08-12T01:59:18.089Z,6.65
2018-08-12T01:59:49.198Z,6.00
2018-08-12T02:00:20.364Z,5.20
2018-08-12T02:00:51.579Z,5.70
2018-08-12T02:01:22.754Z,6.00
2018-08-12T02:01:53.934Z,6.08
2018-08-12T02:02:25.117Z,6.00
2018-08-12T02:02:56.282Z,5.70
2018-08-12T02:03:27.455Z,6.17
2018-08-12T02:03:58.628Z,6.05
2018-08-12T02:04:29.849Z,5.53
2018-08-12T02:05:00.971Z,5.97
2018-08-12T02:05:32.133Z,5.67
2018-08-12T02:06:03.287Z,6.15
2018-08-12T02:06:34.397Z,5.87
2018-08-12T02:07:05.507Z,6.30
2018-08-12T02:07:36.670Z,5.53
2018-08-12T02:08:07.780Z,5.22
2018-08-12T02:08:38.950Z,5.83
2018-08-12T02:09:10.118Z,5.75
2018-08-12T02:09:41.238Z,5.53
2018-08-12T02:10:12.351Z,6.03
2018-08-12T02:10:43.524Z,6.97
2018-08-12T02:11:14.683Z,6.60
2018-08-12T02:11:45.788Z,6.17
2018-08-12T02:12:16.958Z,6.05
2018-08-12T02:12:48.188Z,6.05
2018-08-12T02:13:19.368Z,6.12
2018-08-12T02:13:50.483Z,6.05
2018-08-12T02:14:21.644Z,6.33
2018-08-12T02:14:52.764Z,6.67
2018-08-12T02:15:23.872Z,6.17
2018-08-12T02:15:54.998Z,6.10
2018-08-12T02:16:26.139Z,6.78
2018-08-12T02:16:57.414Z,6.50
2018-08-12T02:17:28.592Z,6.92
2018-08-12T02:17:59.800Z,6.65
2018-08-12T02:18:30.963Z,6.70
2018-08-12T02:19:02.133Z,6.55
2018-08-12T02:19:33.313Z,6.90
2018-08-12T02:20:04.474Z,7.05
2018-08-12T02:20:35.584Z,6.70
2018-08-12T02:21:06.695Z,6.95
2018-08-12T02:21:37.912Z,6.67
2018-08-12T02:22:09.083Z,7.03
2018-08-12T02:22:40.245Z,6.90
2018-08-12T02:23:11.476Z,7.45
2018-08-12T02:23:42.660Z,7.47
2018-08-12T02:24:13.793Z,7.72
2018-08-12T02:24:44.957Z,7.60
2018-08-12T02:25:16.144Z,7.67
2018-08-12T02:25:47.309Z,7.30
2018-08-12T02:26:18.423Z,7.72
2018-08-12T02:26:49.589Z,7.90
2018-08-12T02:27:20.751Z,7.40
2018-08-12T02:27:51.973Z,7.17
2018-08-12T02:28:23.204Z,7.00
2018-08-12T02:28:54.325Z,7.87
2018-08-12T02:29:25.486Z,8.08
2018-08-12T02:29:56.616Z,7.90
2018-08-12T02:30:27.848Z,7.35
2018-08-12T02:30:59.036Z,7.90
2018-08-12T02:31:30.157Z,7.95
2018-08-12T02:32:01.311Z,7.97
2018-08-12T02:32:32.512Z,7.75
2018-08-12T02:33:03.627Z,7.67
2018-08-12T02:33:34.730Z,7.85
2018-08-12T02:34:05.852Z,7.83
2018-08-12T02:34:37.084Z,7.78
2018-08-12T02:35:08.308Z,7.65
2018-08-12T02:35:39.537Z,7.47
2018-08-12T02:36:10.778Z,7.47
2018-08-12T02:36:41.949Z,6.90
2018-08-12T02:37:13.054Z,7.33
2018-08-12T02:37:44.262Z,7.33
2018-08-12T02:38:15.430Z,7.08
2018-08-12T02:38:46.600Z,7.45
2018-08-12T02:39:17.767Z,7.17
2018-08-12T02:39:48.936Z,6.90
2018-08-12T02:40:20.141Z,6.45
2018-08-12T02:40:51.255Z,6.75
2018-08-12T02:41:22.414Z,6.75
2018-08-12T02:41:53.592Z,7.08
2018-08-12T02:42:24.764Z,7.15
2018-08-12T02:42:55.941Z,6.35
2018-08-12T02:43:27.161Z,6.67
2018-08-12T02:43:58.332Z,6.30
2018-08-12T02:44:29.566Z,6.80
2018-08-12T02:45:00.795Z,6.15
2018-08-12T02:45:32.006Z,5.90
2018-08-12T02:46:03.181Z,6.20
2018-08-12T02:46:34.337Z,6.22
2018-08-12T02:47:05.508Z,6.10
2018-08-12T02:47:36.611Z,5.78
2018-08-12T02:48:07.783Z,6.22
2018-08-12T02:48:38.953Z,6.53
2018-08-12T02:49:10.124Z,6.00
2018-08-12T02:49:41.281Z,6.22
2018-08-12T02:50:12.518Z,5.72
2018-08-12T02:50:43.705Z,6.10
2018-08-12T02:51:14.826Z,5.67
2018-08-12T02:51:45.932Z,6.25
2018-08-12T02:52:17.035Z,5.83
2018-08-12T02:52:48.142Z,5.72
2018-08-12T02:53:19.400Z,5.45
2018-08-12T02:53:50.515Z,5.78
2018-08-12T02:54:21.620Z,5.62
2018-08-12T02:54:52.731Z,5.45
2018-08-12T02:55:23.953Z,5.83
2018-08-12T02:55:55.194Z,5.80
2018-08-12T02:56:26.434Z,6.35
2018-08-12T02:56:57.549Z,5.58
2018-08-12T02:57:28.696Z,6.20
2018-08-12T02:57:59.792Z,5.40
2018-08-12T02:58:31.009Z,5.97
2018-08-12T02:59:02.167Z,5.62
2018-08-12T02:59:33.341Z,5.40
2018-08-12T03:00:04.504Z,5.55
2018-08-12T03:00:35.664Z,5.60
2018-08-12T03:01:06.881Z,5.45
2018-08-12T03:01:38.059Z,5.55
2018-08-12T03:02:09.167Z,5.65
2018-08-12T03:02:40.326Z,5.62
2018-08-12T03:03:11.447Z,5.42
2018-08-12T03:03:42.551Z,4.67
2018-08-12T03:04:13.716Z,5.47
2018-08-12T03:04:44.858Z,5.00
2018-08-12T03:05:15.971Z,5.12
2018-08-12T03:05:47.132Z,5.72
2018-08-12T03:06:18.254Z,5.50
2018-08-12T03:06:49.361Z,4.87
2018-08-12T03:07:20.528Z,4.97
2018-08-12T03:07:51.639Z,4.90
2018-08-12T03:08:22.740Z,5.03
2018-08-12T03:08:53.844Z,5.15
2018-08-12T03:09:25.019Z,5.22
2018-08-12T03:09:56.227Z,4.90
2018-08-12T03:10:27.448Z,5.37
2018-08-12T03:10:58.555Z,5.05
2018-08-12T03:11:29.687Z,5.05
2018-08-12T03:12:00.792Z,5.00
2018-08-12T03:12:31.903Z,5.00
2018-08-12T03:13:03.005Z,5.28
2018-08-12T03:13:34.115Z,5.40
2018-08-12T03:14:05.276Z,4.95
2018-08-12T03:14:36.392Z,5.10
2018-08-12T03:15:07.499Z,5.12
2018-08-12T03:15:38.698Z,5.10
2018-08-12T03:16:09.808Z,4.92
2018-08-12T03:16:40.903Z,4.45
2018-08-12T03:17:12.068Z,4.58
2018-08-12T03:17:43.168Z,4.80
2018-08-12T03:18:14.332Z,4.65
2018-08-12T03:18:45.446Z,5.00
2018-08-12T03:19:16.652Z,4.75
2018-08-12T03:19:47.765Z,4.72
2018-08-12T03:20:18.936Z,5.10
2018-08-12T03:20:50.036Z,4.62
2018-08-12T03:21:21.260Z,4.80
2018-08-12T03:21:52.372Z,4.90
2018-08-12T03:22:23.495Z,5.17
2018-08-12T03:22:54.726Z,4.87
2018-08-12T03:23:25.888Z,4.92
2018-08-12T03:23:57.072Z,4.90
2018-08-12T03:24:28.225Z,5.37
2018-08-12T03:24:59.335Z,4.80
2018-08-12T03:25:30.495Z,4.58
2018-08-12T03:26:01.654Z,5.28
2018-08-12T03:26:32.771Z,4.80
2018-08-12T03:27:03.956Z,5.05
2018-08-12T03:27:35.068Z,4.78
2018-08-12T03:28:06.179Z,4.58
2018-08-12T03:28:37.353Z,4.75
2018-08-12T03:29:08.510Z,4.83
2018-08-12T03:29:39.625Z,4.37
2018-08-12T03:30:10.934Z,5.00
2018-08-12T03:30:41.925Z,4.80
2018-08-12T03:31:13.085Z,4.78
2018-08-12T03:31:44.269Z,4.80
2018-08-12T03:32:15.421Z,4.33
2018-08-12T03:32:46.546Z,5.08
2018-08-12T03:33:17.656Z,4.92
2018-08-12T03:33:48.763Z,5.50
2018-08-12T03:34:19.988Z,5.00
2018-08-12T03:34:51.091Z,4.87
2018-08-12T03:35:22.196Z,4.80
2018-08-12T03:35:53.419Z,4.53
2018-08-12T03:36:24.588Z,4.70
2018-08-12T03:36:55.743Z,4.55
2018-08-12T03:37:26.859Z,4.97
2018-08-12T03:37:58.017Z,4.70
2018-08-12T03:38:29.133Z,4.83
2018-08-12T03:39:00.298Z,4.92
2018-08-12T03:39:31.522Z,4.50
2018-08-12T03:40:02.643Z,4.65
2018-08-12T03:40:33.744Z,4.92
2018-08-12T03:41:04.868Z,4.45
2018-08-12T03:41:35.976Z,4.62
2018-08-12T03:42:07.147Z,4.80
2018-08-12T03:42:38.326Z,4.80
2018-08-12T03:43:09.545Z,4.60
2018-08-12T03:43:40.661Z,4.55
2018-08-12T03:44:11.773Z,4.75
2018-08-12T03:44:42.991Z,4.80
2018-08-12T03:45:14.112Z,4.70
2018-08-12T03:45:45.332Z,4.70
2018-08-12T03:46:16.447Z,4.67
2018-08-12T03:46:47.668Z,4.80
2018-08-12T03:47:18.896Z,4.45
2018-08-12T03:47:50.065Z,4.70
2018-08-12T03:48:21.179Z,4.70
2018-08-12T03:48:52.323Z,4.78
2018-08-12T03:49:23.416Z,4.78
2018-08-12T03:49:54.680Z,4.42
2018-08-12T03:50:25.848Z,4.37
2018-08-12T03:50:57.118Z,4.85
2018-08-12T03:51:28.235Z,4.78
2018-08-12T03:51:59.403Z,4.87
2018-08-12T03:52:30.584Z,4.90
2018-08-12T03:53:01.775Z,4.72
2018-08-12T03:53:32.881Z,4.90
2018-08-12T03:54:03.995Z,4.50
2018-08-12T03:54:35.109Z,4.35
2018-08-12T03:55:06.231Z,4.83
2018-08-12T03:55:37.503Z,4.60
2018-08-12T03:56:08.620Z,4.70
2018-08-12T03:56:39.736Z,4.80
2018-08-12T03:57:10.966Z,4.90
2018-08-12T03:57:42.146Z,5.08
2018-08-12T03:58:13.330Z,4.92
2018-08-12T03:58:44.507Z,4.70
2018-08-12T03:59:15.615Z,5.20
2018-08-12T03:59:46.790Z,4.70
2018-08-12T04:00:17.957Z,5.00
2018-08-12T04:00:49.177Z,5.00
2018-08-12T04:01:20.299Z,4.53
2018-08-12T04:01:51.467Z,4.75
2018-08-12T04:02:22.661Z,4.90
2018-08-12T04:02:53.787Z,4.58
2018-08-12T04:03:24.957Z,4.23
2018-08-12T04:03:56.184Z,4.83
2018-08-12T04:04:27.422Z,4.75
2018-08-12T04:04:58.606Z,5.22
2018-08-12T04:05:29.725Z,5.20
2018-08-12T04:06:00.881Z,4.93
2018-08-12T04:06:32.055Z,5.35
2018-08-12T04:07:03.180Z,5.10
2018-08-12T04:07:34.344Z,5.03
2018-08-12T04:08:05.510Z,5.13
2018-08-12T04:08:36.640Z,5.20
2018-08-12T04:09:07.821Z,5.00
2018-08-12T04:09:38.939Z,5.03
2018-08-12T04:10:10.116Z,4.63
2018-08-12T04:10:41.224Z,4.93
2018-08-12T04:11:12.442Z,5.40
2018-08-12T04:11:43.623Z,5.13
2018-08-12T04:12:14.799Z,4.73
2018-08-12T04:12:46.027Z,5.20
2018-08-12T04:13:17.192Z,5.33
2018-08-12T04:13:48.300Z,5.23
2018-08-12T04:14:19.457Z,5.40
2018-08-12T04:14:50.632Z,5.33
2018-08-12T04:15:21.754Z,5.70
2018-08-12T04:15:52.921Z,5.60
2018-08-12T04:16:24.094Z,4.97
2018-08-12T04:16:55.333Z,4.97
2018-08-12T04:17:26.450Z,5.90
2018-08-12T04:17:57.599Z,5.30
2018-08-12T04:18:28.709Z,5.30
2018-08-12T04:18:59.905Z,5.13
2018-08-12T04:19:31.084Z,5.30
2018-08-12T04:20:02.362Z,5.27
2018-08-12T04:20:33.541Z,5.57
2018-08-12T04:21:04.788Z,5.77
2018-08-12T04:21:35.964Z,6.00
2018-08-12T04:22:07.070Z,5.47
2018-08-12T04:22:38.277Z,5.50
2018-08-12T04:23:09.457Z,5.63
2018-08-12T04:23:40.620Z,5.73
2018-08-12T04:24:11.732Z,5.67
2018-08-12T04:24:42.879Z,5.10
2018-08-12T04:25:14.048Z,5.47
2018-08-12T04:25:45.167Z,5.10
2018-08-12T04:26:16.283Z,5.20
2018-08-12T04:26:47.248Z,5.27
2018-08-12T04:27:18.372Z,5.53
2018-08-12T04:27:49.544Z,5.07
2018-08-12T04:28:20.779Z,5.30
2018-08-12T04:28:51.976Z,5.27
2018-08-12T04:29:23.145Z,4.93
2018-08-12T04:29:54.336Z,5.30
2018-08-12T04:30:25.525Z,4.97
2018-08-12T04:30:56.710Z,5.27
2018-08-12T04:31:27.872Z,5.20
2018-08-12T04:31:58.995Z,5.00
2018-08-12T04:32:30.160Z,5.20
2018-08-12T04:33:01.328Z,5.03
2018-08-12T04:33:32.453Z,5.13
2018-08-12T04:34:03.559Z,4.87
2018-08-12T04:34:34.667Z,5.27
2018-08-12T04:35:05.880Z,4.73
2018-08-12T04:35:37.049Z,5.03
2018-08-12T04:36:08.151Z,5.30
2018-08-12T04:36:39.310Z,5.33
2018-08-12T04:37:10.536Z,5.20
2018-08-12T04:37:41.718Z,4.97
2018-08-12T04:38:12.879Z,4.80
2018-08-12T04:38:44.040Z,4.93
2018-08-12T04:39:15.153Z,4.97
2018-08-12T04:39:46.320Z,5.23
2018-08-12T04:40:17.500Z,5.23
2018-08-12T04:40:48.611Z,4.70
2018-08-12T04:41:19.777Z,4.60
2018-08-12T04:41:50.957Z,4.50
2018-08-12T04:42:22.117Z,4.80
2018-08-12T04:42:53.295Z,4.30
2018-08-12T04:43:24.477Z,4.53
2018-08-12T04:43:55.648Z,4.70
2018-08-12T04:44:26.874Z,4.83
2018-08-12T04:44:57.991Z,4.90
2018-08-12T04:45:29.151Z,4.73
2018-08-12T04:46:00.361Z,4.97
2018-08-12T04:46:31.484Z,4.37
2018-08-12T04:47:02.657Z,4.30
2018-08-12T04:47:33.836Z,4.00
2018-08-12T04:48:04.960Z,4.60
2018-08-12T04:48:36.133Z,4.70
2018-08-12T04:49:07.333Z,4.63
2018-08-12T04:49:38.512Z,4.53
2018-08-12T04:50:09.643Z,4.93
2018-08-12T04:50:40.759Z,4.23
2018-08-12T04:51:11.929Z,4.10
2018-08-12T04:51:43.105Z,4.50
2018-08-12T04:52:14.290Z,3.93
2018-08-12T04:52:45.464Z,4.40
2018-08-12T04:53:16.684Z,4.40
2018-08-12T04:53:47.921Z,4.33
2018-08-12T04:54:19.035Z,4.23
2018-08-12T04:54:50.218Z,4.73
2018-08-12T04:55:21.389Z,4.00
2018-08-12T04:55:52.516Z,4.30
2018-08-12T04:56:23.696Z,4.67
2018-08-12T04:56:54.807Z,4.20
2018-08-12T04:57:25.927Z,4.17
2018-08-12T04:57:57.104Z,4.30
2018-08-12T04:58:28.286Z,4.60
2018-08-12T04:58:59.574Z,4.37
2018-08-12T04:59:30.748Z,3.87
2018-08-12T05:00:01.935Z,4.53
2018-08-12T05:00:33.104Z,4.37
2018-08-12T05:01:04.342Z,4.73
2018-08-12T05:01:35.470Z,4.70
2018-08-12T05:02:06.592Z,4.30
2018-08-12T05:02:37.763Z,4.23
2018-08-12T05:03:09.011Z,4.23
2018-08-12T05:03:40.132Z,4.10
2018-08-12T05:04:11.351Z,4.40
2018-08-12T05:04:42.532Z,4.50
2018-08-12T05:05:13.659Z,4.23
2018-08-12T05:05:44.787Z,4.27
2018-08-12T05:06:15.964Z,4.37
2018-08-12T05:06:47.148Z,4.60
2018-08-12T05:07:18.267Z,4.70
2018-08-12T05:07:49.388Z,4.43
2018-08-12T05:08:20.575Z,4.20
2018-08-12T05:08:51.697Z,3.97
2018-08-12T05:09:22.912Z,4.23
2018-08-12T05:09:54.136Z,4.23
2018-08-12T05:10:25.256Z,4.40
2018-08-12T05:10:56.436Z,4.20
2018-08-12T05:11:27.599Z,4.50
2018-08-12T05:11:58.715Z,4.23
2018-08-12T05:12:29.840Z,4.50
2018-08-12T05:13:01.005Z,4.30
2018-08-12T05:13:32.119Z,4.20
2018-08-12T05:14:03.288Z,4.22
2018-08-12T05:14:34.440Z,4.23
2018-08-12T05:15:05.620Z,4.07
2018-08-12T05:15:36.776Z,4.20
2018-08-12T05:16:07.888Z,4.27
2018-08-12T05:16:39.001Z,4.90
2018-08-12T05:17:10.113Z,4.12
2018-08-12T05:17:41.259Z,4.28
2018-08-12T05:18:12.425Z,4.40
2018-08-12T05:18:43.588Z,4.28
2018-08-12T05:19:14.703Z,4.20
2018-08-12T05:19:45.812Z,4.10
2018-08-12T05:20:16.925Z,4.73
2018-08-12T05:20:48.036Z,4.30
2018-08-12T05:21:19.200Z,4.28
2018-08-12T05:21:50.312Z,4.43
2018-08-12T05:22:21.528Z,5.10
2018-08-12T05:22:52.743Z,4.20
2018-08-12T05:23:23.857Z,4.40
2018-08-12T05:23:55.014Z,4.08
2018-08-12T05:24:26.188Z,4.20
2018-08-12T05:24:57.318Z,4.03
2018-08-12T05:25:28.504Z,4.10
2018-08-12T05:25:59.770Z,4.10
2018-08-12T05:26:30.960Z,4.30
2018-08-12T05:27:02.279Z,3.87
2018-08-12T05:27:33.475Z,4.57
2018-08-12T05:28:04.688Z,4.63
2018-08-12T05:28:35.890Z,4.27
2018-08-12T05:29:07.080Z,4.40
2018-08-12T05:29:38.304Z,4.23
2018-08-12T05:30:09.449Z,4.27
2018-08-12T05:30:40.740Z,4.30
2018-08-12T05:31:12.069Z,4.30
2018-08-12T05:31:43.248Z,4.33
2018-08-12T05:32:14.992Z,4.83
2018-08-12T05:32:46.200Z,4.10
2018-08-12T05:33:18.409Z,4.50
2018-08-12T05:33:49.613Z,4.10
2018-08-12T05:34:20.782Z,4.53
2018-08-12T05:34:52.020Z,4.08
2018-08-12T05:35:23.166Z,4.20
2018-08-12T05:35:54.351Z,4.10
2018-08-12T05:36:25.482Z,4.55
2018-08-12T05:36:56.644Z,4.10
2018-08-12T05:37:27.908Z,4.03
2018-08-12T05:37:59.136Z,4.10
2018-08-12T05:38:30.259Z,4.40
2018-08-12T05:39:01.373Z,4.20
2018-08-12T05:39:32.503Z,4.13
2018-08-12T05:40:03.614Z,4.10
2018-08-12T05:40:34.785Z,4.37
2018-08-12T05:41:05.891Z,4.27
2018-08-12T05:41:37.114Z,4.30
2018-08-12T05:42:08.244Z,4.60
2018-08-12T05:42:39.391Z,4.20
2018-08-12T05:43:10.572Z,4.40
2018-08-12T05:43:41.687Z,4.43
2018-08-12T05:44:12.890Z,4.23
2018-08-12T05:44:44.024Z,4.47
2018-08-12T05:45:15.199Z,4.40
2018-08-12T05:45:46.385Z,4.00
2018-08-12T05:46:17.552Z,3.77
2018-08-12T05:46:48.669Z,4.10
2018-08-12T05:47:19.793Z,4.40
2018-08-12T05:47:50.963Z,4.30
2018-08-12T05:48:22.092Z,4.43
2018-08-12T05:48:53.203Z,3.63
2018-08-12T05:49:24.311Z,3.97
2018-08-12T05:49:55.428Z,4.27
2018-08-12T05:50:26.595Z,3.87
2018-08-12T05:50:57.752Z,4.13
2018-08-12T05:51:28.919Z,3.73
2018-08-12T05:52:00.061Z,4.40
2018-08-12T05:52:31.952Z,4.17
2018-08-12T05:53:03.216Z,3.77
2018-08-12T05:53:34.466Z,4.33
2018-08-12T05:54:05.595Z,4.13
2018-08-12T05:54:36.721Z,4.20
2018-08-12T05:55:07.849Z,4.20
2018-08-12T05:55:38.964Z,3.93
2018-08-12T05:56:10.147Z,4.20
2018-08-12T05:56:41.321Z,4.10
2018-08-12T05:57:12.482Z,4.03
2018-08-12T05:57:43.669Z,3.97
2018-08-12T05:58:14.872Z,3.80
2018-08-12T05:58:46.023Z,4.00
2018-08-12T05:59:17.149Z,3.83
2018-08-12T05:59:48.321Z,4.13
2018-08-12T06:00:19.436Z,3.97
2018-08-12T06:00:50.676Z,3.97
2018-08-12T06:01:21.857Z,4.37
2018-08-12T06:01:52.978Z,4.17
2018-08-12T06:02:24.155Z,3.33
2018-08-12T06:02:55.424Z,3.60
2018-08-12T06:03:26.589Z,4.13
2018-08-12T06:03:57.838Z,4.23
2018-08-12T06:04:28.971Z,4.20
2018-08-12T06:05:00.143Z,3.97
2018-08-12T06:05:31.298Z,4.17
2018-08-12T06:06:02.429Z,4.60
2018-08-12T06:06:33.599Z,4.10
2018-08-12T06:07:04.719Z,3.80
2018-08-12T06:07:35.848Z,4.00
2018-08-12T06:08:07.025Z,3.97
2018-08-12T06:08:38.232Z,4.10
2018-08-12T06:09:09.537Z,4.53
2018-08-12T06:09:40.724Z,4.47
2018-08-12T06:10:11.848Z,4.10
2018-08-12T06:10:43.077Z,4.17
2018-08-12T06:11:14.206Z,4.10
2018-08-12T06:11:45.437Z,3.70
2018-08-12T06:12:16.678Z,4.17
2018-08-12T06:12:47.887Z,3.93
2018-08-12T06:13:19.004Z,3.80
2018-08-12T06:13:50.192Z,3.90
2018-08-12T06:14:21.365Z,3.83
2018-08-12T06:14:52.519Z,4.23
2018-08-12T06:15:23.642Z,4.00
2018-08-12T06:15:54.879Z,3.80
2018-08-12T06:16:26.078Z,4.10
2018-08-12T06:16:57.318Z,4.10
2018-08-12T06:17:28.453Z,4.07
2018-08-12T06:17:59.649Z,4.00
2018-08-12T06:18:30.770Z,3.70
2018-08-12T06:19:01.950Z,4.00
2018-08-12T06:19:33.104Z,4.03
2018-08-12T06:20:04.249Z,4.00
2018-08-12T06:20:35.370Z,3.83
2018-08-12T06:21:06.495Z,4.07
2018-08-12T06:21:37.625Z,3.90
2018-08-12T06:22:08.815Z,4.03
2018-08-12T06:22:40.007Z,4.00
2018-08-12T06:23:11.188Z,4.00
2018-08-12T06:23:42.316Z,4.23
2018-08-12T06:24:13.550Z,4.13
2018-08-12T06:24:44.777Z,4.10
2018-08-12T06:25:15.976Z,4.37
2018-08-12T06:25:47.176Z,4.40
2018-08-12T06:26:18.438Z,4.40
2018-08-12T06:26:49.568Z,4.50
2018-08-12T06:27:20.692Z,4.20
2018-08-12T06:27:51.873Z,3.90
2018-08-12T06:28:23.023Z,4.30
2018-08-12T06:28:54.159Z,4.03
2018-08-12T06:29:25.280Z,4.10
2018-08-12T06:29:56.453Z,4.00
2018-08-12T06:30:27.570Z,4.13
2018-08-12T06:30:58.762Z,4.60
2018-08-12T06:31:29.986Z,4.50
2018-08-12T06:32:01.148Z,4.23
2018-08-12T06:32:32.314Z,4.30
2018-08-12T06:33:03.432Z,4.10
2018-08-12T06:33:34.612Z,4.20
2018-08-12T06:34:05.739Z,4.47
2018-08-12T06:34:36.913Z,4.20
2018-08-12T06:35:08.104Z,4.57
2018-08-12T06:35:39.282Z,4.30
2018-08-12T06:36:10.464Z,4.00
2018-08-12T06:36:41.608Z,3.97
2018-08-12T06:37:12.843Z,4.40
2018-08-12T06:37:44.057Z,4.50
2018-08-12T06:38:15.252Z,4.43
2018-08-12T06:38:46.480Z,4.30
2018-08-12T06:39:17.761Z,4.97
2018-08-12T06:39:48.966Z,4.70
2018-08-12T06:40:20.081Z,4.97
2018-08-12T06:40:51.247Z,4.70
2018-08-12T06:41:22.369Z,5.03
2018-08-12T06:41:53.488Z,4.53
2018-08-12T06:42:24.657Z,4.83
2018-08-12T06:42:55.851Z,4.73
2018-08-12T06:43:26.965Z,4.30
2018-08-12T06:43:58.128Z,4.40
2018-08-12T06:44:29.296Z,4.40
2018-08-12T06:45:00.452Z,4.53
2018-08-12T06:45:31.615Z,4.57
2018-08-12T06:46:02.784Z,4.43
2018-08-12T06:46:33.907Z,4.50
2018-08-12T06:47:05.026Z,4.50
2018-08-12T06:47:36.144Z,5.10
2018-08-12T06:48:07.295Z,4.63
2018-08-12T06:48:38.411Z,4.23
2018-08-12T06:49:09.538Z,4.53
2018-08-12T06:49:40.715Z,4.93
2018-08-12T06:50:11.849Z,4.50
2018-08-12T06:50:43.089Z,4.50
2018-08-12T06:51:14.217Z,4.37
2018-08-12T06:51:45.406Z,4.60
2018-08-12T06:52:16.597Z,5.17
2018-08-12T06:52:47.820Z,4.10
2018-08-12T06:53:19.020Z,4.17
2018-08-12T06:53:50.189Z,4.83
2018-08-12T06:54:21.404Z,4.23
2018-08-12T06:54:52.584Z,4.67